createdAt,value
2022-10-26T00:00:00.962Z,0.00
2022-10-26T00:01:00.937Z,0.00
2022-10-26T00:02:00.972Z,0.00
2022-10-26T00:03:01.246Z,0.00
2022-10-26T00:04:00.935Z,0.00
2022-10-26T00:05:00.862Z,0.00
2022-10-26T00:06:00.874Z,0.00
2022-10-26T00:07:00.855Z,0.00
2022-10-26T00:08:00.833Z,0.00
2022-10-26T00:09:00.822Z,0.00
2022-10-26T00:10:00.804Z,0.00
2022-10-26T00:11:00.847Z,0.00
2022-10-26T00:12:00.813Z,0.00
2022-10-26T00:13:00.872Z,0.00
2022-10-26T00:14:00.813Z,0.00
2022-10-26T00:15:00.782Z,0.00
2022-10-26T00:17:00.742Z,0.00
2022-10-26T00:18:00.722Z,0.00
2022-10-26T00:19:00.705Z,0.00
2022-10-26T00:20:00.698Z,0.00
2022-10-26T00:21:00.674Z,0.00
2022-10-26T00:22:00.667Z,0.00
2022-10-26T00:23:00.685Z,0.00
2022-10-26T00:24:00.643Z,0.00
2022-10-26T00:25:00.702Z,0.00
2022-10-26T00:26:00.713Z,0.00
2022-10-26T00:27:00.684Z,0.00
2022-10-26T00:28:00.605Z,0.00
2022-10-26T00:29:00.624Z,0.00
2022-10-26T00:30:00.578Z,0.00
2022-10-26T00:31:00.563Z,0.00
2022-10-26T00:32:00.575Z,0.00
2022-10-26T00:33:00.551Z,0.00
2022-10-26T00:34:00.533Z,0.00
2022-10-26T00:35:10.437Z,0.00
2022-10-26T00:36:01.595Z,0.00
2022-10-26T00:37:00.503Z,0.00
2022-10-26T00:38:00.483Z,0.00
2022-10-26T00:39:00.473Z,0.00
2022-10-26T00:40:00.462Z,0.00
2022-10-26T00:41:00.493Z,0.00
2022-10-26T00:42:00.442Z,0.00
2022-10-26T00:43:00.422Z,0.00
2022-10-26T00:44:00.412Z,0.00
2022-10-26T00:45:00.417Z,0.00
2022-10-26T00:46:00.556Z,0.00
2022-10-26T00:47:00.433Z,0.00
2022-10-26T00:48:00.474Z,0.00
2022-10-26T00:49:00.355Z,0.00
2022-10-26T00:50:00.355Z,0.00
2022-10-26T00:51:00.343Z,0.00
2022-10-26T00:52:00.352Z,0.00
2022-10-26T00:53:00.337Z,0.00
2022-10-26T00:54:00.303Z,0.00
2022-10-26T00:55:00.293Z,0.00
2022-10-26T00:56:00.286Z,0.00
2022-10-26T00:57:00.346Z,0.00
2022-10-26T00:58:00.323Z,0.00
2022-10-26T00:59:00.318Z,0.00
2022-10-26T01:00:00.300Z,0.00
2022-10-26T01:01:00.230Z,0.00
2022-10-26T01:02:00.212Z,0.00
2022-10-26T01:03:00.212Z,0.00
2022-10-26T01:04:00.282Z,0.00
2022-10-26T01:05:00.366Z,0.00
2022-10-26T01:06:00.167Z,0.00
2022-10-26T01:07:00.156Z,0.00
2022-10-26T01:08:00.143Z,0.00
2022-10-26T01:09:00.152Z,0.00
2022-10-26T01:10:00.152Z,0.00
2022-10-26T01:11:00.103Z,0.00
2022-10-26T01:12:00.110Z,0.00
2022-10-26T01:13:00.083Z,0.00
2022-10-26T01:14:00.077Z,0.00
2022-10-26T01:15:00.065Z,0.00
2022-10-26T01:16:00.090Z,0.00
2022-10-26T01:17:00.058Z,0.00
2022-10-26T01:18:00.068Z,0.00
2022-10-26T01:19:00.017Z,0.00
2022-10-26T01:20:00.011Z,0.00
2022-10-26T01:21:00.003Z,0.00
2022-10-26T01:22:00.004Z,0.00
2022-10-26T01:22:59.970Z,0.00
2022-10-26T01:23:59.967Z,0.00
2022-10-26T01:24:59.955Z,0.00
2022-10-26T01:25:59.944Z,0.00
2022-10-26T01:27:00.012Z,0.00
2022-10-26T01:28:00.035Z,0.00
2022-10-26T01:28:59.944Z,0.00
2022-10-26T01:29:59.894Z,0.00
2022-10-26T01:30:59.881Z,0.00
2022-10-26T01:31:59.874Z,0.00
2022-10-26T01:32:59.863Z,0.00
2022-10-26T01:33:59.873Z,0.00
2022-10-26T01:34:59.833Z,0.00
2022-10-26T01:35:59.824Z,0.00
2022-10-26T01:36:59.822Z,0.00
2022-10-26T01:37:59.812Z,0.00
2022-10-26T01:38:59.793Z,0.00
2022-10-26T01:39:59.794Z,0.00
2022-10-26T01:40:59.768Z,0.00
2022-10-26T01:41:59.786Z,0.00
2022-10-26T01:42:59.743Z,0.00
2022-10-26T01:43:59.753Z,0.00
2022-10-26T01:44:59.742Z,0.00
2022-10-26T01:45:59.764Z,0.00
2022-10-26T01:46:59.926Z,0.00
2022-10-26T01:47:59.683Z,0.00
2022-10-26T01:48:59.675Z,0.00
2022-10-26T01:49:59.675Z,0.00
2022-10-26T01:50:59.652Z,0.00
2022-10-26T01:51:59.665Z,0.00
2022-10-26T01:52:59.624Z,0.00
2022-10-26T01:53:59.623Z,0.00
2022-10-26T01:54:59.606Z,0.00
2022-10-26T01:55:59.626Z,0.00
2022-10-26T01:56:59.676Z,0.00
2022-10-26T01:57:59.578Z,0.00
2022-10-26T01:58:59.557Z,0.00
2022-10-26T01:59:59.554Z,0.00
2022-10-26T02:00:59.544Z,0.00
2022-10-26T02:01:59.525Z,0.00
2022-10-26T02:02:59.534Z,0.00
2022-10-26T02:03:59.595Z,0.00
2022-10-26T02:04:59.501Z,0.00
2022-10-26T02:05:59.498Z,0.00
2022-10-26T02:06:59.508Z,0.00
2022-10-26T02:07:59.464Z,0.00
2022-10-26T02:08:59.474Z,0.00
2022-10-26T02:09:59.433Z,0.00
2022-10-26T02:10:59.423Z,0.00
2022-10-26T02:11:59.424Z,0.00
2022-10-26T02:12:59.395Z,0.00
2022-10-26T02:13:59.434Z,0.00
2022-10-26T02:14:59.394Z,0.00
2022-10-26T02:15:59.363Z,0.00
2022-10-26T02:16:59.362Z,0.00
2022-10-26T02:17:59.345Z,0.00
2022-10-26T02:18:59.345Z,0.00
2022-10-26T02:19:59.346Z,0.00
2022-10-26T02:20:59.315Z,0.00
2022-10-26T02:21:59.304Z,0.00
2022-10-26T02:22:59.313Z,0.00
2022-10-26T02:23:59.327Z,0.00
2022-10-26T02:24:59.314Z,0.00
2022-10-26T02:25:59.282Z,0.00
2022-10-26T02:26:59.234Z,0.00
2022-10-26T02:27:59.305Z,0.00
2022-10-26T02:28:59.225Z,0.00
2022-10-26T02:29:59.225Z,0.00
2022-10-26T02:30:59.212Z,0.00
2022-10-26T02:31:59.203Z,0.00
2022-10-26T02:32:59.172Z,0.00
2022-10-26T02:33:59.175Z,0.00
2022-10-26T02:34:59.180Z,0.00
2022-10-26T02:35:59.144Z,0.00
2022-10-26T02:36:59.123Z,0.00
2022-10-26T02:37:59.145Z,0.00
2022-10-26T02:38:59.107Z,0.00
2022-10-26T02:39:59.094Z,0.00
2022-10-26T02:40:59.085Z,0.00
2022-10-26T02:41:59.073Z,0.00
2022-10-26T02:42:59.058Z,0.00
2022-10-26T02:43:59.083Z,0.00
2022-10-26T02:44:59.033Z,0.00
2022-10-26T02:45:59.024Z,0.00
2022-10-26T02:46:59.022Z,0.00
2022-10-26T02:47:59.005Z,0.00
2022-10-26T02:48:58.985Z,0.00
2022-10-26T02:49:58.994Z,0.00
2022-10-26T02:50:58.974Z,0.00
2022-10-26T02:51:58.957Z,0.00
2022-10-26T02:52:58.945Z,0.00
2022-10-26T02:53:58.945Z,0.00
2022-10-26T02:54:58.984Z,0.00
2022-10-26T02:55:58.923Z,0.00
2022-10-26T02:56:58.905Z,0.00
2022-10-26T02:57:58.885Z,0.00
2022-10-26T02:58:58.874Z,0.00
2022-10-26T02:59:58.930Z,0.00
2022-10-26T03:00:58.880Z,0.00
2022-10-26T03:01:58.854Z,0.00
2022-10-26T03:02:58.895Z,0.00
2022-10-26T03:03:59.308Z,0.00
2022-10-26T03:04:58.807Z,0.00
2022-10-26T03:05:58.853Z,0.00
2022-10-26T03:06:58.806Z,0.00
2022-10-26T03:07:58.785Z,0.00
2022-10-26T03:08:58.757Z,0.00
2022-10-26T03:09:58.759Z,0.00
2022-10-26T03:10:58.743Z,0.00
2022-10-26T03:11:58.763Z,0.00
2022-10-26T03:12:58.722Z,0.00
2022-10-26T03:13:58.712Z,0.00
2022-10-26T03:14:58.697Z,0.00
2022-10-26T03:15:58.688Z,0.00
2022-10-26T03:16:58.677Z,0.00
2022-10-26T03:17:58.686Z,0.00
2022-10-26T03:18:58.656Z,0.00
2022-10-26T03:19:58.647Z,0.00
2022-10-26T03:20:58.623Z,0.00
2022-10-26T03:21:58.634Z,0.00
2022-10-26T03:22:58.686Z,0.00
2022-10-26T03:23:58.704Z,0.00
2022-10-26T03:24:58.649Z,0.00
2022-10-26T03:25:58.565Z,0.00
2022-10-26T03:27:01.210Z,0.00
2022-10-26T03:27:58.563Z,0.00
2022-10-26T03:28:58.572Z,0.00
2022-10-26T03:29:58.525Z,0.00
2022-10-26T03:30:58.503Z,0.00
2022-10-26T03:31:58.581Z,0.00
2022-10-26T03:32:58.508Z,0.00
2022-10-26T03:33:58.484Z,0.00
2022-10-26T03:34:58.485Z,0.00
2022-10-26T03:35:58.461Z,0.00
2022-10-26T03:36:58.446Z,0.00
2022-10-26T03:37:58.458Z,0.00
2022-10-26T03:38:58.444Z,0.00
2022-10-26T03:39:58.413Z,0.00
2022-10-26T03:40:58.403Z,0.00
2022-10-26T03:41:58.417Z,0.00
2022-10-26T03:42:58.390Z,0.00
2022-10-26T03:43:58.371Z,0.00
2022-10-26T03:44:58.354Z,0.00
2022-10-26T03:45:58.411Z,0.00
2022-10-26T03:46:58.334Z,0.00
2022-10-26T03:47:58.325Z,0.00
2022-10-26T03:48:58.304Z,0.00
2022-10-26T03:49:58.322Z,0.00
2022-10-26T03:50:58.294Z,0.00
2022-10-26T03:51:58.294Z,0.00
2022-10-26T03:52:58.265Z,0.00
2022-10-26T03:53:58.247Z,0.00
2022-10-26T03:54:58.235Z,0.00
2022-10-26T03:55:58.224Z,0.00
2022-10-26T03:56:58.247Z,0.00
2022-10-26T03:57:58.200Z,0.00
2022-10-26T03:58:58.204Z,0.00
2022-10-26T03:59:58.175Z,0.00
2022-10-26T04:00:58.223Z,0.00
2022-10-26T04:01:58.262Z,0.00
2022-10-26T04:02:58.166Z,0.00
2022-10-26T04:03:58.189Z,0.00
2022-10-26T04:04:58.128Z,0.00
2022-10-26T04:05:58.105Z,0.00
2022-10-26T04:06:58.095Z,0.00
2022-10-26T04:07:58.091Z,0.00
2022-10-26T04:08:58.110Z,0.00
2022-10-26T04:09:58.088Z,0.00
2022-10-26T04:10:59.907Z,0.00
2022-10-26T04:11:58.055Z,0.00
2022-10-26T04:12:58.033Z,0.00
2022-10-26T04:13:58.027Z,0.00
2022-10-26T04:14:58.085Z,0.00
2022-10-26T04:15:57.996Z,0.00
2022-10-26T04:16:57.990Z,0.00
2022-10-26T04:17:57.973Z,0.00
2022-10-26T04:18:57.966Z,0.00
2022-10-26T04:19:57.965Z,0.00
2022-10-26T04:20:57.955Z,0.00
2022-10-26T04:21:57.925Z,0.00
2022-10-26T04:22:57.913Z,0.00
2022-10-26T04:23:57.915Z,0.00
2022-10-26T04:24:57.886Z,0.00
2022-10-26T04:25:57.906Z,0.00
2022-10-26T04:26:57.874Z,0.00
2022-10-26T04:27:57.868Z,0.00
2022-10-26T04:28:57.874Z,0.00
2022-10-26T04:29:57.848Z,0.00
2022-10-26T04:30:57.880Z,0.00
2022-10-26T04:31:57.836Z,0.00
2022-10-26T04:32:57.800Z,0.00
2022-10-26T04:33:57.785Z,0.00
2022-10-26T04:34:57.789Z,0.00
2022-10-26T04:35:57.767Z,0.00
2022-10-26T04:36:57.778Z,0.00
2022-10-26T04:37:57.743Z,0.00
2022-10-26T04:38:57.747Z,0.00
2022-10-26T04:39:57.944Z,0.00
2022-10-26T04:40:57.708Z,0.00
2022-10-26T04:41:57.696Z,0.00
2022-10-26T04:42:57.715Z,0.00
2022-10-26T04:43:57.689Z,0.00
2022-10-26T04:44:57.665Z,0.00
2022-10-26T04:45:57.648Z,0.00
2022-10-26T04:46:57.648Z,0.00
2022-10-26T04:47:57.638Z,0.00
2022-10-26T04:48:57.665Z,0.00
2022-10-26T04:49:57.617Z,0.00
2022-10-26T04:50:57.626Z,0.00
2022-10-26T04:51:57.585Z,0.00
2022-10-26T04:52:57.585Z,0.00
2022-10-26T04:53:57.556Z,0.00
2022-10-26T04:54:57.576Z,0.00
2022-10-26T04:55:57.536Z,0.00
2022-10-26T04:56:57.553Z,0.00
2022-10-26T04:58:00.381Z,0.00
2022-10-26T04:58:57.505Z,0.00
2022-10-26T04:59:57.486Z,0.00
2022-10-26T05:00:57.557Z,0.00
2022-10-26T05:01:57.617Z,0.00
2022-10-26T05:02:57.456Z,0.00
2022-10-26T05:04:04.487Z,0.00
2022-10-26T05:04:57.474Z,0.00
2022-10-26T05:05:57.418Z,0.00
2022-10-26T05:06:57.437Z,0.00
2022-10-26T05:07:57.397Z,0.00
2022-10-26T05:08:57.388Z,0.00
2022-10-26T05:09:57.368Z,0.00
2022-10-26T05:10:57.365Z,0.00
2022-10-26T05:11:57.376Z,0.00
2022-10-26T05:12:57.349Z,0.00
2022-10-26T05:13:57.330Z,0.00
2022-10-26T05:14:57.317Z,0.00
2022-10-26T05:15:57.298Z,0.00
2022-10-26T05:16:57.296Z,0.00
2022-10-26T05:17:57.314Z,0.00
2022-10-26T05:18:57.277Z,0.00
2022-10-26T05:19:57.258Z,0.00
2022-10-26T05:20:57.248Z,0.00
2022-10-26T05:21:57.237Z,0.00
2022-10-26T05:22:57.228Z,0.00
2022-10-26T05:23:57.228Z,0.00
2022-10-26T05:24:57.198Z,0.00
2022-10-26T05:25:57.188Z,0.00
2022-10-26T05:26:57.180Z,0.00
2022-10-26T05:27:57.167Z,0.00
2022-10-26T05:28:57.179Z,0.00
2022-10-26T05:29:57.241Z,0.00
2022-10-26T05:30:57.138Z,0.00
2022-10-26T05:31:57.118Z,0.00
2022-10-26T05:32:57.108Z,0.00
2022-10-26T05:33:57.098Z,0.00
2022-10-26T05:34:57.107Z,0.00
2022-10-26T05:35:57.079Z,4.00
2022-10-26T05:36:57.068Z,4.00
2022-10-26T05:37:57.047Z,4.00
2022-10-26T05:38:57.046Z,0.00
2022-10-26T05:39:57.048Z,4.00
2022-10-26T05:40:57.018Z,8.00
2022-10-26T05:41:57.010Z,4.00
2022-10-26T05:42:56.999Z,8.00
2022-10-26T05:43:56.978Z,8.00
2022-10-26T05:44:56.977Z,12.00
2022-10-26T05:45:56.976Z,12.00
2022-10-26T05:46:56.963Z,16.00
2022-10-26T05:47:59.973Z,16.00
2022-10-26T05:48:57.928Z,16.00
2022-10-26T05:49:56.917Z,20.00
2022-10-26T05:50:56.963Z,16.00
2022-10-26T05:51:56.888Z,20.00
2022-10-26T05:52:56.887Z,20.00
2022-10-26T05:53:56.869Z,28.00
2022-10-26T05:54:56.869Z,32.00
2022-10-26T05:55:56.851Z,40.00
2022-10-26T05:56:56.857Z,52.00
2022-10-26T05:57:56.818Z,56.00
2022-10-26T05:58:56.808Z,68.00
2022-10-26T05:59:56.799Z,76.00
2022-10-26T06:00:56.797Z,92.00
2022-10-26T06:01:56.946Z,100.00
2022-10-26T06:02:56.770Z,112.00
2022-10-26T06:03:56.758Z,128.00
2022-10-26T06:04:56.750Z,148.00
2022-10-26T06:05:56.731Z,168.00
2022-10-26T06:06:56.726Z,196.00
2022-10-26T06:07:56.719Z,232.00
2022-10-26T06:08:56.699Z,260.00
2022-10-26T06:09:56.690Z,280.00
2022-10-26T06:10:56.687Z,288.00
2022-10-26T06:11:56.672Z,296.00
2022-10-26T06:12:56.679Z,304.00
2022-10-26T06:13:56.679Z,316.00
2022-10-26T06:14:56.629Z,324.00
2022-10-26T06:15:56.619Z,336.00
2022-10-26T06:16:56.609Z,344.00
2022-10-26T06:17:56.600Z,356.00
2022-10-26T06:18:59.614Z,388.00
2022-10-26T06:19:57.569Z,452.00
2022-10-26T06:20:56.558Z,556.00
2022-10-26T06:21:56.558Z,700.00
2022-10-26T06:22:56.539Z,796.00
2022-10-26T06:23:56.569Z,832.00
2022-10-26T06:24:56.548Z,800.00
2022-10-26T06:25:56.500Z,772.00
2022-10-26T06:26:56.540Z,712.00
2022-10-26T06:27:56.479Z,668.00
2022-10-26T06:28:56.479Z,620.00
2022-10-26T06:29:56.459Z,588.00
2022-10-26T06:30:56.470Z,608.00
2022-10-26T06:31:56.439Z,680.00
2022-10-26T06:33:05.987Z,748.00
2022-10-26T06:33:57.411Z,740.00
2022-10-26T06:34:56.400Z,748.00
2022-10-26T06:35:56.390Z,764.00
2022-10-26T06:36:56.401Z,768.00
2022-10-26T06:37:56.359Z,796.00
2022-10-26T06:38:56.359Z,820.00
2022-10-26T06:39:56.339Z,880.00
2022-10-26T06:40:56.337Z,904.00
2022-10-26T06:41:56.321Z,1072.00
2022-10-26T06:42:56.329Z,1164.00
2022-10-26T06:43:56.309Z,1168.00
2022-10-26T06:44:56.290Z,1112.00
2022-10-26T06:45:56.283Z,1084.00
2022-10-26T06:46:56.267Z,1084.00
2022-10-26T06:47:56.250Z,1076.00
2022-10-26T06:48:56.279Z,1060.00
2022-10-26T06:49:56.231Z,1060.00
2022-10-26T06:50:56.219Z,1076.00
2022-10-26T06:51:56.207Z,1140.00
2022-10-26T06:52:56.200Z,1204.00
2022-10-26T06:53:56.187Z,1280.00
2022-10-26T06:54:56.197Z,1356.00
2022-10-26T06:55:56.159Z,1356.00
2022-10-26T06:56:56.149Z,1324.00
2022-10-26T06:57:56.129Z,1260.00
2022-10-26T06:58:56.132Z,1200.00
2022-10-26T06:59:56.132Z,1168.00
2022-10-26T07:00:56.101Z,1160.00
2022-10-26T07:01:56.175Z,1192.00
2022-10-26T07:02:56.127Z,1160.00
2022-10-26T07:03:56.078Z,1172.00
2022-10-26T07:04:56.069Z,1264.00
2022-10-26T07:05:56.114Z,1408.00
2022-10-26T07:06:56.037Z,1596.00
2022-10-26T07:07:56.020Z,1772.00
2022-10-26T07:08:56.010Z,1948.00
2022-10-26T07:09:56.004Z,2216.00
2022-10-26T07:10:55.995Z,2340.00
2022-10-26T07:11:55.990Z,2248.00
2022-10-26T07:12:55.970Z,2116.00
2022-10-26T07:13:55.960Z,2000.00
2022-10-26T07:14:55.987Z,1836.00
2022-10-26T07:15:55.930Z,1700.00
2022-10-26T07:16:55.943Z,1696.00
2022-10-26T07:17:55.901Z,1732.00
2022-10-26T07:18:55.900Z,1716.00
2022-10-26T07:19:55.880Z,1804.00
2022-10-26T07:20:55.881Z,1972.00
2022-10-26T07:21:55.860Z,2104.00
2022-10-26T07:22:55.874Z,2272.00
2022-10-26T07:23:55.848Z,2500.00
2022-10-26T07:24:57.069Z,2792.00
2022-10-26T07:25:55.812Z,3200.00
2022-10-26T07:26:55.810Z,3624.00
2022-10-26T07:27:55.791Z,3968.00
2022-10-26T07:28:55.801Z,4052.00
2022-10-26T07:29:55.770Z,3968.00
2022-10-26T07:30:56.279Z,3844.00
2022-10-26T07:31:55.800Z,3716.00
2022-10-26T07:32:55.741Z,3692.00
2022-10-26T07:33:55.742Z,3796.00
2022-10-26T07:34:55.719Z,4012.00
2022-10-26T07:35:55.701Z,4184.00
2022-10-26T07:36:55.691Z,4320.00
2022-10-26T07:37:55.680Z,4336.00
2022-10-26T07:38:55.670Z,4496.00
2022-10-26T07:39:55.673Z,4708.00
2022-10-26T07:40:55.644Z,4976.00
2022-10-26T07:41:55.631Z,5032.00
2022-10-26T07:42:55.621Z,4924.00
2022-10-26T07:43:55.613Z,4924.00
2022-10-26T07:44:55.600Z,4844.00
2022-10-26T07:45:55.612Z,4868.00
2022-10-26T07:46:55.574Z,5012.00
2022-10-26T07:47:55.563Z,5216.00
2022-10-26T07:48:55.552Z,5356.00
2022-10-26T07:49:55.540Z,5232.00
2022-10-26T07:50:55.530Z,4712.00
2022-10-26T07:51:55.552Z,4144.00
2022-10-26T07:52:55.502Z,3808.00
2022-10-26T07:53:55.520Z,3640.00
2022-10-26T07:54:55.482Z,3360.00
2022-10-26T07:55:55.471Z,3312.00
2022-10-26T07:56:55.492Z,3508.00
2022-10-26T07:57:55.869Z,3912.00
2022-10-26T07:58:55.442Z,4356.00
2022-10-26T07:59:55.422Z,4664.00
2022-10-26T08:00:55.488Z,4828.00
2022-10-26T08:01:55.479Z,4852.00
2022-10-26T08:02:55.422Z,4876.00
2022-10-26T08:03:55.393Z,5144.00
2022-10-26T08:04:55.362Z,5800.00
2022-10-26T08:05:55.362Z,6444.00
2022-10-26T08:06:55.343Z,7068.00
2022-10-26T08:07:55.336Z,7516.00
2022-10-26T08:08:55.353Z,7608.00
2022-10-26T08:09:55.312Z,7480.00
2022-10-26T08:10:55.293Z,7164.00
2022-10-26T08:11:55.292Z,6724.00
2022-10-26T08:12:55.274Z,5836.00
2022-10-26T08:13:55.282Z,4932.00
2022-10-26T08:14:55.264Z,4332.00
2022-10-26T08:15:55.244Z,3884.00
2022-10-26T08:16:55.233Z,3552.00
2022-10-26T08:17:55.221Z,3528.00
2022-10-26T08:18:55.212Z,3660.00
2022-10-26T08:19:55.684Z,3920.00
2022-10-26T08:21:01.775Z,4212.00
2022-10-26T08:21:56.173Z,4624.00
2022-10-26T08:22:55.164Z,4952.00
2022-10-26T08:23:55.163Z,5244.00
2022-10-26T08:24:55.144Z,5440.00
2022-10-26T08:25:55.147Z,5780.00
2022-10-26T08:26:55.117Z,6244.00
2022-10-26T08:27:55.105Z,6576.00
2022-10-26T08:28:55.094Z,6664.00
2022-10-26T08:29:55.084Z,6828.00
2022-10-26T08:30:55.093Z,6776.00
2022-10-26T08:31:55.063Z,6876.00
2022-10-26T08:32:55.044Z,6796.00
2022-10-26T08:33:55.044Z,6464.00
2022-10-26T08:34:55.025Z,6064.00
2022-10-26T08:35:55.015Z,5688.00
2022-10-26T08:36:55.014Z,5600.00
2022-10-26T08:37:54.995Z,5740.00
2022-10-26T08:38:55.045Z,5796.00
2022-10-26T08:39:55.964Z,5548.00
2022-10-26T08:40:54.954Z,5272.00
2022-10-26T08:41:54.966Z,5192.00
2022-10-26T08:42:54.934Z,5280.00
2022-10-26T08:43:54.939Z,5492.00
2022-10-26T08:44:54.905Z,5532.00
2022-10-26T08:45:54.895Z,5596.00
2022-10-26T08:46:54.915Z,5732.00
2022-10-26T08:47:54.914Z,5884.00
2022-10-26T08:48:54.867Z,5960.00
2022-10-26T08:49:54.856Z,6096.00
2022-10-26T08:50:55.077Z,6304.00
2022-10-26T08:51:55.286Z,6436.00
2022-10-26T08:52:54.826Z,6808.00
2022-10-26T08:53:54.835Z,7800.00
2022-10-26T08:54:54.796Z,8196.00
2022-10-26T08:55:54.790Z,8388.00
2022-10-26T08:56:54.775Z,8772.00
2022-10-26T08:57:54.766Z,9208.00
2022-10-26T08:58:54.755Z,9072.00
2022-10-26T08:59:54.755Z,9140.00
2022-10-26T09:00:54.763Z,9736.00
2022-10-26T09:01:54.769Z,9072.00
2022-10-26T09:02:54.707Z,8136.00
2022-10-26T09:03:54.730Z,7464.00
2022-10-26T09:04:54.707Z,7440.00
2022-10-26T09:05:54.677Z,7216.00
2022-10-26T09:06:54.657Z,6656.00
2022-10-26T09:07:54.657Z,6444.00
2022-10-26T09:08:54.636Z,6432.00
2022-10-26T09:09:54.629Z,6328.00
2022-10-26T09:10:54.627Z,6352.00
2022-10-26T09:11:54.606Z,18752.00
2022-10-26T09:12:54.587Z,6668.00
2022-10-26T09:13:57.578Z,7068.00
2022-10-26T09:14:55.569Z,23264.00
2022-10-26T09:15:54.579Z,26176.00
2022-10-26T09:16:54.546Z,8736.00
2022-10-26T09:17:54.536Z,25664.00
2022-10-26T09:18:56.699Z,10268.00
2022-10-26T09:19:54.517Z,6980.00
2022-10-26T09:20:54.498Z,6180.00
2022-10-26T09:21:54.719Z,6652.00
2022-10-26T09:22:54.477Z,7208.00
2022-10-26T09:23:54.478Z,7300.00
2022-10-26T09:24:54.454Z,7096.00
2022-10-26T09:25:54.447Z,6712.00
2022-10-26T09:26:54.528Z,6808.00
2022-10-26T09:27:54.418Z,7524.00
2022-10-26T09:28:54.407Z,8224.00
2022-10-26T09:29:54.403Z,8192.00
2022-10-26T09:30:54.399Z,8792.00
2022-10-26T09:31:54.378Z,8780.00
2022-10-26T09:32:54.378Z,9344.00
2022-10-26T09:33:54.367Z,10284.00
2022-10-26T09:34:54.338Z,11140.00
2022-10-26T09:35:54.329Z,11888.00
2022-10-26T09:36:54.318Z,12272.00
2022-10-26T09:37:54.329Z,13424.00
2022-10-26T09:38:54.300Z,12488.00
2022-10-26T09:39:54.288Z,12268.00
2022-10-26T09:40:54.271Z,12352.00
2022-10-26T09:41:54.259Z,11888.00
2022-10-26T09:42:54.247Z,11648.00
2022-10-26T09:43:54.275Z,11712.00
2022-10-26T09:44:54.219Z,11800.00
2022-10-26T09:45:54.209Z,11592.00
2022-10-26T09:46:54.199Z,11168.00
2022-10-26T09:47:54.189Z,10868.00
2022-10-26T09:48:54.234Z,10828.00
2022-10-26T09:49:54.181Z,11288.00
2022-10-26T09:50:54.175Z,12164.00
2022-10-26T09:51:54.141Z,12272.00
2022-10-26T09:52:54.130Z,13940.00
2022-10-26T09:53:54.130Z,13860.00
2022-10-26T09:54:54.130Z,14144.00
2022-10-26T09:55:54.100Z,12788.00
2022-10-26T09:56:54.080Z,10404.00
2022-10-26T09:57:54.075Z,9316.00
2022-10-26T09:58:54.060Z,7512.00
2022-10-26T09:59:54.050Z,7572.00
2022-10-26T10:00:54.065Z,6620.00
2022-10-26T10:01:54.065Z,7416.00
2022-10-26T10:02:54.153Z,7264.00
2022-10-26T10:03:54.020Z,6972.00
2022-10-26T10:04:53.990Z,6808.00
2022-10-26T10:05:53.985Z,6740.00
2022-10-26T10:06:54.001Z,6980.00
2022-10-26T10:07:53.961Z,7008.00
2022-10-26T10:08:53.941Z,6864.00
2022-10-26T10:09:53.951Z,6796.00
2022-10-26T10:10:53.922Z,7376.00
2022-10-26T10:11:53.911Z,8468.00
2022-10-26T10:12:53.921Z,9600.00
2022-10-26T10:13:53.902Z,9784.00
2022-10-26T10:14:53.880Z,9988.00
2022-10-26T10:15:53.870Z,11108.00
2022-10-26T10:16:53.852Z,9728.00
2022-10-26T10:17:54.244Z,8404.00
2022-10-26T10:18:53.852Z,8508.00
2022-10-26T10:19:53.822Z,8736.00
2022-10-26T10:20:53.812Z,8480.00
2022-10-26T10:21:53.803Z,8228.00
2022-10-26T10:22:53.792Z,8276.00
2022-10-26T10:23:53.791Z,7948.00
2022-10-26T10:24:53.783Z,7388.00
2022-10-26T10:25:53.762Z,6872.00
2022-10-26T10:26:53.744Z,6512.00
2022-10-26T10:27:53.736Z,6300.00
2022-10-26T10:28:53.723Z,6144.00
2022-10-26T10:29:53.741Z,6048.00
2022-10-26T10:30:53.704Z,6020.00
2022-10-26T10:31:53.693Z,5952.00
2022-10-26T10:32:53.992Z,5872.00
2022-10-26T10:33:53.676Z,5844.00
2022-10-26T10:34:53.655Z,5816.00
2022-10-26T10:35:53.696Z,5824.00
2022-10-26T10:36:53.634Z,5856.00
2022-10-26T10:37:53.624Z,5852.00
2022-10-26T10:38:53.606Z,5864.00
2022-10-26T10:39:53.658Z,5892.00
2022-10-26T10:40:53.586Z,5924.00
2022-10-26T10:41:53.613Z,5948.00
2022-10-26T10:42:53.741Z,4572.00
2022-10-26T10:43:53.565Z,5336.00
2022-10-26T10:44:53.545Z,6320.00
2022-10-26T10:45:55.802Z,7896.00
2022-10-26T10:46:54.555Z,8008.00
2022-10-26T10:47:53.514Z,8812.00
2022-10-26T10:48:53.504Z,9788.00
2022-10-26T10:49:53.493Z,10784.00
2022-10-26T10:50:53.476Z,11048.00
2022-10-26T10:51:53.465Z,11040.00
2022-10-26T10:52:53.485Z,11044.00
2022-10-26T10:53:53.455Z,11116.00
2022-10-26T10:54:53.434Z,11012.00
2022-10-26T10:55:53.430Z,10652.00
2022-10-26T10:56:53.409Z,10152.00
2022-10-26T10:57:53.405Z,9484.00
2022-10-26T10:58:53.416Z,9344.00
2022-10-26T10:59:53.378Z,9424.00
2022-10-26T11:00:53.373Z,9488.00
2022-10-26T11:01:53.456Z,9536.00
2022-10-26T11:02:53.344Z,9260.00
2022-10-26T11:04:00.403Z,8948.00
2022-10-26T11:04:53.319Z,8952.00
2022-10-26T11:05:53.311Z,9452.00
2022-10-26T11:06:53.301Z,9536.00
2022-10-26T11:07:53.292Z,9300.00
2022-10-26T11:08:53.284Z,9124.00
2022-10-26T11:10:53.252Z,9008.00
2022-10-26T11:11:53.245Z,9136.00
2022-10-26T11:12:53.232Z,9216.00
2022-10-26T11:13:53.232Z,9376.00
2022-10-26T11:14:53.203Z,9676.00
2022-10-26T11:15:53.223Z,10244.00
2022-10-26T11:16:53.195Z,10140.00
2022-10-26T11:17:53.184Z,10044.00
2022-10-26T11:18:53.165Z,10088.00
2022-10-26T11:19:53.164Z,10640.00
2022-10-26T11:20:53.210Z,11164.00
2022-10-26T11:21:53.134Z,12828.00
2022-10-26T11:22:53.398Z,13116.00
2022-10-26T11:23:53.123Z,13156.00
2022-10-26T11:24:53.097Z,13060.00
2022-10-26T11:25:53.083Z,12436.00
2022-10-26T11:26:53.104Z,12064.00
2022-10-26T11:27:53.127Z,11708.00
2022-10-26T11:28:53.044Z,11616.00
2022-10-26T11:29:53.044Z,10940.00
2022-10-26T11:30:53.027Z,9640.00
2022-10-26T11:31:53.034Z,7560.00
2022-10-26T11:32:53.079Z,6048.00
2022-10-26T11:33:53.045Z,5452.00
2022-10-26T11:34:52.975Z,5012.00
2022-10-26T11:35:52.965Z,4980.00
2022-10-26T11:36:52.956Z,4980.00
2022-10-26T11:37:52.971Z,5016.00
2022-10-26T11:38:57.309Z,4664.00
2022-10-26T11:39:52.927Z,4448.00
2022-10-26T11:40:52.918Z,4316.00
2022-10-26T11:41:52.906Z,4128.00
2022-10-26T11:42:52.971Z,4124.00
2022-10-26T11:43:52.916Z,4180.00
2022-10-26T11:44:53.136Z,4300.00
2022-10-26T11:45:52.915Z,4904.00
2022-10-26T11:46:52.842Z,5096.00
2022-10-26T11:47:53.145Z,5904.00
2022-10-26T11:48:52.816Z,5732.00
2022-10-26T11:49:52.828Z,5772.00
2022-10-26T11:50:52.788Z,5384.00
2022-10-26T11:51:52.787Z,5280.00
2022-10-26T11:52:53.122Z,4980.00
2022-10-26T11:53:52.777Z,5044.00
2022-10-26T11:54:52.747Z,5056.00
2022-10-26T11:55:52.809Z,5304.00
2022-10-26T11:56:52.721Z,4744.00
2022-10-26T11:57:53.094Z,4584.00
2022-10-26T11:58:52.747Z,4536.00
2022-10-26T11:59:52.691Z,4548.00
2022-10-26T12:00:52.680Z,4500.00
2022-10-26T12:01:52.688Z,4696.00
2022-10-26T12:02:52.654Z,4412.00
2022-10-26T12:03:52.652Z,4576.00
2022-10-26T12:04:52.629Z,4420.00
2022-10-26T12:05:52.713Z,4332.00
2022-10-26T12:06:52.602Z,4372.00
2022-10-26T12:07:52.924Z,4232.00
2022-10-26T12:08:52.590Z,4204.00
2022-10-26T12:09:52.578Z,4280.00
2022-10-26T12:10:52.563Z,4420.00
2022-10-26T12:11:52.550Z,4584.00
2022-10-26T12:12:52.941Z,4828.00
2022-10-26T12:13:52.551Z,5032.00
2022-10-26T12:14:52.512Z,5372.00
2022-10-26T12:16:02.813Z,5676.00
2022-10-26T12:16:53.489Z,5812.00
2022-10-26T12:17:52.652Z,6284.00
2022-10-26T12:18:56.358Z,6180.00
2022-10-26T12:19:52.450Z,6416.00
2022-10-26T12:20:52.441Z,6388.00
2022-10-26T12:21:52.422Z,6180.00
2022-10-26T12:22:52.542Z,6064.00
2022-10-26T12:23:52.411Z,6112.00
2022-10-26T12:24:52.420Z,6312.00
2022-10-26T12:25:52.383Z,6820.00
2022-10-26T12:26:52.372Z,7352.00
2022-10-26T12:27:52.356Z,7868.00
2022-10-26T12:28:54.629Z,8080.00
2022-10-26T12:29:52.342Z,8408.00
2022-10-26T12:30:52.354Z,8564.00
2022-10-26T12:31:52.314Z,8664.00
2022-10-26T12:32:52.636Z,8548.00
2022-10-26T12:33:52.302Z,8440.00
2022-10-26T12:34:52.273Z,8296.00
2022-10-26T12:35:52.271Z,8928.00
2022-10-26T12:36:52.274Z,8376.00
2022-10-26T12:37:52.589Z,8844.00
2022-10-26T12:38:52.234Z,7956.00